Time;durP1;ratioP1;P1;durP2;ratioP2;P2;SDS_P1;SDS_P2;PMS_P1;PMS_P2;Temp;Humidity;BMP_temperature;BMP_pressure;BME280_temperature;BME280_humidity;BME280_pressure;Samples;Min_cycle;Max_cycle;Signal;HPM_P1;HPM_P2
2023/03/10 00:01:14;;;;;;;;;;;3.60;99.90;;;;;;8375383;28;20023;-66
2023/03/10 00:05:17;;;;;;;;;;;3.70;99.90;;;;;;8378691;28;19931;-66
2023/03/10 00:09:19;;;;;;;;;;;3.70;99.90;;;;;;8371172;28;19924;-66
2023/03/10 00:13:20;;;;;;;;;;;3.70;99.90;;;;;;8374848;28;20171;-66
2023/03/10 00:17:22;;;;;;;;;;;3.70;99.90;;;;;;8379906;28;19925;-67
2023/03/10 00:21:25;;;;;;;;;;;3.80;99.90;;;;;;8380540;28;20015;-66
2023/03/10 00:25:27;;;;;;;;;;;3.70;99.90;;;;;;8380176;28;19967;-67
2023/03/10 00:29:28;;;;;;;;;;;3.80;99.90;;;;;;8385051;28;20168;-66
2023/03/10 00:33:31;;;;;;;;;;;3.80;99.90;;;;;;8387947;28;19965;-67
2023/03/10 00:37:34;;;;;;;;;;;3.80;99.90;;;;;;8388297;28;19935;-67
2023/03/10 00:41:37;;;;;;;;;;;3.90;99.90;;;;;;8373352;28;19931;-66
2023/03/10 00:45:39;;;;;;;;;;;3.90;99.90;;;;;;8391020;28;19959;-67
2023/03/10 00:49:41;;;;;;;;;;;3.90;99.90;;;;;;8380976;28;19928;-66
2023/03/10 00:53:43;;;;;;;;;;;3.90;99.90;;;;;;8384055;28;19928;-67
2023/03/10 00:57:45;;;;;;;;;;;3.90;99.90;;;;;;8382237;28;19932;-66
2023/03/10 01:01:46;;;;;;;;;;;3.90;99.90;;;;;;8384773;28;20413;-66
2023/03/10 01:05:48;;;;;;;;;;;3.90;99.90;;;;;;8392196;28;19936;-66
2023/03/10 01:09:50;;;;;;;;;;;3.90;99.90;;;;;;8388203;28;19925;-67
2023/03/10 01:13:52;;;;;;;;;;;3.90;99.90;;;;;;8382565;28;20399;-67
2023/03/10 01:17:54;;;;;;;;;;;4.00;99.90;;;;;;8352263;28;20279;-66
2023/03/10 01:21:55;;;;;;;;;;;3.90;99.90;;;;;;8390628;28;19936;-66
2023/03/10 01:25:57;;;;;;;;;;;4.00;99.90;;;;;;8387458;28;19924;-66
2023/03/10 01:29:58;;;;;;;;;;;4.00;99.90;;;;;;8375734;28;19947;-67
2023/03/10 01:34:00;;;;;;;;;;;4.00;99.90;;;;;;8371000;28;20372;-67
2023/03/10 01:38:02;;;;;;;;;;;4.00;99.90;;;;;;8385800;28;19924;-66
2023/03/10 01:42:04;;;;;;;;;;;4.00;99.90;;;;;;8365105;28;19928;-66
2023/03/10 01:46:24;;;;;;;;;;;4.00;99.90;;;;;;8391125;28;19928;-67
2023/03/10 01:50:26;;;;;;;;;;;4.00;99.90;;;;;;8386353;28;19924;-66
2023/03/10 01:59:44;;;;;;;;;;;4.00;99.90;;;;;;8382253;28;19919;-67
2023/03/10 02:03:45;;;;;;;;;;;3.90;99.90;;;;;;8380215;28;19975;-66
2023/03/10 02:07:47;;;;;;;;;;;3.90;99.90;;;;;;8376725;28;20022;-66
2023/03/10 02:11:49;;;;;;;;;;;3.90;99.90;;;;;;8389180;28;19931;-67
2023/03/10 02:15:51;;;;;;;;;;;3.90;99.90;;;;;;8368673;28;19931;-66
2023/03/10 02:20:00;;;;;;;;;;;3.90;99.90;;;;;;8367948;28;21048;-67
2023/03/10 02:24:01;;;;;;;;;;;3.90;99.90;;;;;;8387188;28;19976;-67
2023/03/10 02:28:03;;;;;;;;;;;3.90;99.90;;;;;;8381694;28;20470;-67
2023/03/10 02:32:05;;;;;;;;;;;3.90;99.90;;;;;;8373453;28;19933;-67
2023/03/10 02:36:14;;;;;;;;;;;3.90;99.90;;;;;;8371455;28;19925;-67
2023/03/10 02:40:28;;;;;;;;;;;3.90;99.90;;;;;;8379771;28;19929;-67
2023/03/10 02:44:32;;;;;;;;;;;3.90;99.90;;;;;;8385809;28;20293;-66
2023/03/10 02:48:35;;;;;;;;;;;3.90;99.90;;;;;;8386283;28;19931;-66
2023/03/10 02:52:41;;;;;;;;;;;3.90;99.90;;;;;;8369155;28;19934;-67
2023/03/10 02:56:44;;;;;;;;;;;3.90;99.90;;;;;;8385280;28;19924;-66
2023/03/10 03:00:46;;;;;;;;;;;3.90;99.90;;;;;;8378247;28;19933;-66
2023/03/10 03:04:48;;;;;;;;;;;3.90;99.90;;;;;;8384694;28;19986;-67
2023/03/10 03:08:50;;;;;;;;;;;3.90;99.90;;;;;;8379822;28;20391;-66
2023/03/10 03:12:51;;;;;;;;;;;3.90;99.90;;;;;;8389825;28;19924;-67
2023/03/10 03:16:53;;;;;;;;;;;3.90;99.90;;;;;;8385150;28;19958;-67
2023/03/10 03:20:55;;;;;;;;;;;3.90;99.90;;;;;;8384586;28;19932;-66
2023/03/10 03:24:56;;;;;;;;;;;3.90;99.90;;;;;;8378287;28;19976;-67
2023/03/10 03:28:58;;;;;;;;;;;4.00;99.90;;;;;;8380037;28;19924;-66
2023/03/10 03:33:00;;;;;;;;;;;4.00;99.90;;;;;;8357867;28;19967;-67
2023/03/10 03:37:02;;;;;;;;;;;4.00;99.90;;;;;;8380293;28;19932;-67
2023/03/10 03:41:04;;;;;;;;;;;4.00;99.90;;;;;;8378511;28;19932;-66
2023/03/10 03:45:06;;;;;;;;;;;4.00;99.90;;;;;;8387272;28;19935;-66
2023/03/10 03:49:09;;;;;;;;;;;4.00;99.90;;;;;;8381819;28;19924;-66
2023/03/10 03:53:11;;;;;;;;;;;4.00;99.90;;;;;;8384848;28;20292;-67
2023/03/10 03:57:12;;;;;;;;;;;4.00;99.90;;;;;;8365398;28;19935;-67
2023/03/10 04:01:14;;;;;;;;;;;4.00;99.90;;;;;;8382700;28;20390;-67
2023/03/10 04:15:23;;;;;;;;;;;4.00;99.90;;;;;;8382358;28;20009;-67
2023/03/10 04:19:25;;;;;;;;;;;4.00;99.90;;;;;;8379920;28;20364;-67
2023/03/10 04:23:27;;;;;;;;;;;3.90;99.90;;;;;;8382422;28;19933;-67
2023/03/10 04:27:29;;;;;;;;;;;4.00;99.90;;;;;;8388482;28;19925;-67
2023/03/10 04:31:31;;;;;;;;;;;4.00;99.90;;;;;;8389147;28;20292;-67
2023/03/10 04:35:33;;;;;;;;;;;4.00;99.90;;;;;;8388788;28;19933;-67
2023/03/10 04:39:35;;;;;;;;;;;4.00;99.90;;;;;;8381793;28;19931;-66
2023/03/10 04:43:37;;;;;;;;;;;4.00;99.90;;;;;;8383114;28;20408;-66
2023/03/10 04:47:40;;;;;;;;;;;4.00;99.90;;;;;;8384691;28;19931;-67
2023/03/10 04:51:41;;;;;;;;;;;3.90;99.90;;;;;;8392137;28;20393;-67
2023/03/10 04:55:43;;;;;;;;;;;3.90;99.90;;;;;;8391414;28;19976;-67
2023/03/10 04:59:45;;;;;;;;;;;3.90;99.90;;;;;;8384777;28;20321;-66
2023/03/10 05:03:46;;;;;;;;;;;3.80;99.90;;;;;;8386251;28;19933;-67
2023/03/10 05:07:48;;;;;;;;;;;3.80;99.90;;;;;;8387673;28;19970;-67
2023/03/10 05:11:49;;;;;;;;;;;3.80;99.90;;;;;;8392053;28;19964;-67
2023/03/10 05:15:52;;;;;;;;;;;3.80;99.90;;;;;;8396166;28;20288;-67
2023/03/10 05:19:54;;;;;;;;;;;3.80;99.90;;;;;;8398217;28;19929;-66
2023/03/10 05:23:56;;;;;;;;;;;3.80;99.90;;;;;;8399983;28;19925;-66
2023/03/10 05:27:57;;;;;;;;;;;3.80;99.90;;;;;;8386385;28;19924;-66
2023/03/10 05:31:59;;;;;;;;;;;3.80;99.90;;;;;;8394408;28;19928;-67
2023/03/10 05:36:05;;;;;;;;;;;3.80;99.90;;;;;;8374850;28;19939;-67
2023/03/10 05:40:08;;;;;;;;;;;3.80;99.90;;;;;;8374968;28;19932;-67
2023/03/10 05:44:10;;;;;;;;;;;3.70;99.90;;;;;;8371129;28;19924;-67
2023/03/10 05:48:11;;;;;;;;;;;3.70;99.90;;;;;;8384818;28;19935;-66
2023/03/10 05:52:13;;;;;;;;;;;3.70;99.90;;;;;;8403425;28;19933;-67
2023/03/10 05:56:16;;;;;;;;;;;3.70;99.90;;;;;;8390150;28;19932;-66
2023/03/10 06:00:18;;;;;;;;;;;3.70;99.90;;;;;;8368086;28;19952;-67
2023/03/10 06:04:19;;;;;;;;;;;3.70;99.90;;;;;;8385566;28;19924;-67
2023/03/10 06:08:22;;;;;;;;;;;3.70;99.90;;;;;;8382068;28;19970;-67
2023/03/10 06:12:24;;;;;;;;;;;3.70;99.90;;;;;;8384153;28;20371;-67
2023/03/10 06:16:25;;;;;;;;;;;3.60;99.90;;;;;;8382179;28;19924;-67
2023/03/10 06:20:27;;;;;;;;;;;3.60;99.90;;;;;;8389889;28;19924;-67
2023/03/10 06:24:29;;;;;;;;;;;3.60;99.90;;;;;;8371643;28;19924;-66
2023/03/10 06:28:31;;;;;;;;;;;3.60;99.90;;;;;;8379828;28;19939;-67
2023/03/10 06:32:33;;;;;;;;;;;3.60;99.90;;;;;;8370134;28;20388;-66
2023/03/10 06:36:37;;;;;;;;;;;3.50;99.90;;;;;;8389357;28;19935;-67
2023/03/10 06:40:39;;;;;;;;;;;3.60;99.90;;;;;;8388304;28;19925;-67
2023/03/10 06:44:41;;;;;;;;;;;3.60;99.90;;;;;;8397748;28;20372;-67
2023/03/10 06:48:42;;;;;;;;;;;3.60;99.90;;;;;;8379823;28;19935;-67
2023/03/10 06:52:44;;;;;;;;;;;3.60;99.90;;;;;;8385790;28;20413;-67
2023/03/10 06:56:46;;;;;;;;;;;3.60;99.90;;;;;;8367990;28;20372;-67
2023/03/10 07:00:48;;;;;;;;;;;3.50;99.90;;;;;;8383798;28;19928;-67
2023/03/10 07:04:49;;;;;;;;;;;3.60;99.90;;;;;;8385808;28;19924;-67
2023/03/10 07:08:52;;;;;;;;;;;3.50;99.90;;;;;;8381822;28;19979;-67
2023/03/10 07:12:57;;;;;;;;;;;3.60;99.90;;;;;;8383467;28;19967;-66
2023/03/10 07:16:59;;;;;;;;;;;3.60;99.90;;;;;;8378760;28;19928;-67
2023/03/10 07:21:01;;;;;;;;;;;3.70;99.90;;;;;;8386437;28;19928;-67
2023/03/10 07:25:03;;;;;;;;;;;3.70;99.90;;;;;;8388850;28;19924;-67
2023/03/10 07:29:05;;;;;;;;;;;3.70;99.90;;;;;;8390862;28;19925;-67
2023/03/10 07:33:07;;;;;;;;;;;3.70;99.90;;;;;;8364778;28;19929;-67
2023/03/10 07:37:09;;;;;;;;;;;3.70;99.90;;;;;;8386500;28;19925;-67
2023/03/10 07:41:13;;;;;;;;;;;3.80;99.90;;;;;;8378472;28;19925;-67
2023/03/10 07:45:15;;;;;;;;;;;3.80;99.90;;;;;;8378451;28;20071;-66
2023/03/10 07:49:16;;;;;;;;;;;3.80;99.90;;;;;;8381407;28;21307;-67
2023/03/10 07:53:19;;;;;;;;;;;3.80;99.90;;;;;;8381654;28;19925;-67
2023/03/10 07:57:21;;;;;;;;;;;3.90;99.90;;;;;;8379812;28;19948;-67
2023/03/10 08:01:22;;;;;;;;;;;3.90;99.90;;;;;;8382696;28;19960;-66
2023/03/10 08:05:26;;;;;;;;;;;3.90;99.90;;;;;;8374286;28;19997;-67
2023/03/10 08:09:28;;;;;;;;;;;3.90;99.90;;;;;;8378529;28;20292;-68
2023/03/10 08:13:30;;;;;;;;;;;3.90;99.90;;;;;;8386463;28;19990;-68
2023/03/10 08:17:32;;;;;;;;;;;4.00;99.90;;;;;;8368921;28;19924;-68
2023/03/10 08:21:34;;;;;;;;;;;4.00;99.90;;;;;;8369635;28;20277;-67
2023/03/10 08:25:36;;;;;;;;;;;4.00;99.90;;;;;;8384575;28;20372;-68
2023/03/10 08:29:38;;;;;;;;;;;4.00;99.90;;;;;;8379454;28;19928;-68
2023/03/10 08:33:41;;;;;;;;;;;4.00;99.90;;;;;;8382527;28;19970;-68
2023/03/10 08:37:43;;;;;;;;;;;4.10;99.90;;;;;;8384276;28;19928;-68
2023/03/10 08:41:47;;;;;;;;;;;4.10;99.90;;;;;;8376118;28;19950;-68
2023/03/10 08:45:49;;;;;;;;;;;4.20;99.90;;;;;;8376998;28;19924;-68
2023/03/10 08:49:51;;;;;;;;;;;4.20;99.90;;;;;;8378048;28;19924;-68
2023/03/10 08:53:52;;;;;;;;;;;4.20;99.90;;;;;;8378261;28;19924;-67
2023/03/10 08:57:54;;;;;;;;;;;4.20;99.90;;;;;;8371940;28;19924;-68
2023/03/10 09:01:56;;;;;;;;;;;4.20;99.90;;;;;;8382609;28;19924;-67
2023/03/10 09:05:57;;;;;;;;;;;4.20;99.90;;;;;;8387261;28;20268;-68
2023/03/10 09:09:59;;;;;;;;;;;4.20;99.90;;;;;;8385280;28;19931;-67
2023/03/10 09:14:01;;;;;;;;;;;4.30;99.90;;;;;;8382386;28;19932;-67
2023/03/10 09:18:02;;;;;;;;;;;4.30;99.90;;;;;;8369276;28;19929;-68
2023/03/10 09:22:04;;;;;;;;;;;4.30;99.90;;;;;;8373573;28;19939;-68
2023/03/10 09:26:06;;;;;;;;;;;4.30;99.90;;;;;;8391246;28;20324;-68
2023/03/10 09:30:08;;;;;;;;;;;4.30;99.90;;;;;;8377311;28;19925;-68
2023/03/10 09:34:11;;;;;;;;;;;4.30;99.90;;;;;;8386523;28;19931;-68
2023/03/10 09:38:12;;;;;;;;;;;4.30;99.90;;;;;;8393073;28;19928;-68
2023/03/10 09:42:37;;;;;;;;;;;4.30;99.90;;;;;;8377079;28;19928;-67
2023/03/10 09:46:44;;;;;;;;;;;4.40;99.90;;;;;;8380602;28;20485;-67
2023/03/10 09:50:48;;;;;;;;;;;4.40;99.90;;;;;;8386560;28;19978;-67
2023/03/10 09:54:59;;;;;;;;;;;4.40;99.90;;;;;;8386073;28;19924;-67
2023/03/10 09:59:04;;;;;;;;;;;4.40;99.90;;;;;;8389017;28;19970;-67
2023/03/10 10:03:19;;;;;;;;;;;4.50;99.90;;;;;;8373950;28;19924;-67
2023/03/10 10:07:22;;;;;;;;;;;4.50;99.90;;;;;;8385735;28;19925;-67
2023/03/10 10:11:24;;;;;;;;;;;4.50;99.90;;;;;;8385584;28;19978;-67
2023/03/10 10:15:26;;;;;;;;;;;4.50;99.90;;;;;;8388952;28;19924;-67
2023/03/10 10:19:28;;;;;;;;;;;4.50;99.90;;;;;;8386511;28;20393;-68
2023/03/10 10:23:37;;;;;;;;;;;4.60;99.90;;;;;;8389057;28;20192;-67
2023/03/10 10:27:40;;;;;;;;;;;4.60;99.90;;;;;;8375356;28;19930;-67
2023/03/10 10:31:42;;;;;;;;;;;4.60;99.90;;;;;;8369196;28;20375;-67
2023/03/10 10:35:45;;;;;;;;;;;4.50;99.90;;;;;;8379370;28;20398;-67
2023/03/10 10:39:48;;;;;;;;;;;4.50;99.90;;;;;;8383554;28;20307;-68
2023/03/10 10:43:50;;;;;;;;;;;4.50;99.90;;;;;;8386289;28;19929;-67
2023/03/10 10:47:54;;;;;;;;;;;4.50;99.90;;;;;;8379803;28;20373;-67
2023/03/10 10:52:03;;;;;;;;;;;4.50;99.90;;;;;;8389688;28;19932;-67
2023/03/10 10:56:11;;;;;;;;;;;4.50;99.90;;;;;;8382635;28;20411;-67
2023/03/10 11:00:17;;;;;;;;;;;4.50;99.90;;;;;;8365465;28;19924;-67
2023/03/10 11:04:19;;;;;;;;;;;4.60;99.90;;;;;;8386954;28;19924;-67
2023/03/10 11:08:36;;;;;;;;;;;4.70;99.90;;;;;;8389456;28;19931;-67
2023/03/10 11:12:47;;;;;;;;;;;4.70;99.90;;;;;;8366442;28;20031;-67
2023/03/10 11:17:00;;;;;;;;;;;4.70;99.90;;;;;;8385020;28;19967;-68
2023/03/10 11:21:22;;;;;;;;;;;4.60;99.90;;;;;;8388889;28;19924;-67
2023/03/10 11:25:42;;;;;;;;;;;4.60;99.90;;;;;;8390174;28;19925;-67
2023/03/10 11:29:56;;;;;;;;;;;4.60;99.90;;;;;;8385194;28;20368;-68
2023/03/10 11:34:08;;;;;;;;;;;4.60;99.90;;;;;;8382909;28;19932;-67
2023/03/10 11:38:27;;;;;;;;;;;4.60;99.90;;;;;;8376718;28;19976;-67
2023/03/10 11:42:33;;;;;;;;;;;4.60;99.90;;;;;;8352939;28;19928;-68
2023/03/10 11:46:43;;;;;;;;;;;4.70;99.90;;;;;;8349312;28;20043;-67
2023/03/10 11:50:58;;;;;;;;;;;4.80;99.90;;;;;;8354596;28;19994;-67
2023/03/10 11:55:02;;;;;;;;;;;4.90;99.90;;;;;;8347095;28;19933;-67
2023/03/10 11:59:04;;;;;;;;;;;5.10;99.90;;;;;;8353713;28;19925;-67
2023/03/10 12:03:12;;;;;;;;;;;5.10;99.90;;;;;;8365408;28;19980;-67
2023/03/10 12:07:17;;;;;;;;;;;5.10;99.90;;;;;;8352415;28;19935;-67
2023/03/10 12:11:20;;;;;;;;;;;5.10;99.90;;;;;;8355856;28;20404;-67
2023/03/10 12:15:31;;;;;;;;;;;5.00;99.90;;;;;;8360130;28;19963;-67
2023/03/10 12:19:52;;;;;;;;;;;4.90;99.90;;;;;;8350166;28;19933;-67
2023/03/10 12:23:56;;;;;;;;;;;4.80;99.90;;;;;;8333620;28;20281;-67
2023/03/10 12:28:06;;;;;;;;;;;4.80;99.90;;;;;;8352385;28;19929;-68
2023/03/10 12:32:37;;;;;;;;;;;4.80;99.90;;;;;;8353343;28;19924;-67
2023/03/10 12:36:40;;;;;;;;;;;4.80;99.90;;;;;;8351248;28;19933;-67
2023/03/10 12:40:48;;;;;;;;;;;4.80;99.90;;;;;;8352655;28;19933;-67
2023/03/10 12:44:54;;;;;;;;;;;4.90;99.90;;;;;;8351252;28;19929;-68
2023/03/10 12:49:05;;;;;;;;;;;4.90;99.90;;;;;;8349429;28;19936;-68
2023/03/10 12:53:20;;;;;;;;;;;4.90;99.90;;;;;;8358482;28;19928;-67
2023/03/10 12:57:38;;;;;;;;;;;4.90;99.90;;;;;;8360888;28;19929;-67
2023/03/10 13:01:41;;;;;;;;;;;4.90;99.90;;;;;;8360337;28;20429;-67
2023/03/10 13:05:56;;;;;;;;;;;4.90;99.90;;;;;;8359770;28;20400;-67
2023/03/10 13:10:01;;;;;;;;;;;4.90;99.90;;;;;;8359653;28;20277;-67
2023/03/10 13:14:04;;;;;;;;;;;4.90;99.90;;;;;;8359202;28;20433;-67
2023/03/10 13:18:15;;;;;;;;;;;4.80;99.90;;;;;;8359499;28;20366;-67
2023/03/10 13:22:16;;;;;;;;;;;4.70;99.90;;;;;;8361548;28;20287;-67
2023/03/10 13:26:18;;;;;;;;;;;4.60;99.90;;;;;;8359944;28;19924;-67
2023/03/10 13:30:21;;;;;;;;;;;4.60;99.90;;;;;;8371990;28;20027;-67
2023/03/10 13:34:29;;;;;;;;;;;4.50;99.90;;;;;;8356345;28;20023;-67
2023/03/10 13:38:30;;;;;;;;;;;4.40;99.90;;;;;;8357232;28;19932;-68
2023/03/10 13:42:32;;;;;;;;;;;4.40;99.90;;;;;;8358253;28;19972;-67
2023/03/10 13:46:46;;;;;;;;;;;4.30;99.90;;;;;;8355418;28;20296;-67
2023/03/10 13:51:01;;;;;;;;;;;4.20;99.90;;;;;;8352780;28;19929;-68
2023/03/10 13:55:14;;;;;;;;;;;4.10;99.90;;;;;;8355201;28;19928;-67
2023/03/10 13:59:21;;;;;;;;;;;4.00;99.90;;;;;;8366326;28;19936;-67
2023/03/10 14:03:23;;;;;;;;;;;4.00;99.90;;;;;;8357879;28;19925;-67
2023/03/10 14:07:37;;;;;;;;;;;3.90;99.90;;;;;;8353051;28;19929;-67
2023/03/10 14:11:43;;;;;;;;;;;3.90;99.90;;;;;;8347358;28;19991;-67
2023/03/10 14:15:51;;;;;;;;;;;3.80;99.90;;;;;;8356052;28;19967;-67
2023/03/10 14:19:53;;;;;;;;;;;3.60;99.90;;;;;;8337233;28;19983;-67
2023/03/10 14:24:00;;;;;;;;;;;3.40;99.90;;;;;;8354759;28;19964;-67
2023/03/10 14:28:10;;;;;;;;;;;3.20;99.90;;;;;;8357439;28;20423;-67
2023/03/10 14:32:12;;;;;;;;;;;3.10;99.90;;;;;;8353978;28;19936;-67
2023/03/10 14:36:14;;;;;;;;;;;2.90;99.90;;;;;;8357806;28;20318;-67
2023/03/10 14:40:16;;;;;;;;;;;2.80;99.90;;;;;;8355858;28;19929;-67
2023/03/10 14:44:18;;;;;;;;;;;2.70;99.90;;;;;;8335259;28;19947;-67
2023/03/10 14:48:21;;;;;;;;;;;2.60;99.90;;;;;;8355154;28;19987;-67
2023/03/10 14:52:22;;;;;;;;;;;2.60;99.90;;;;;;8366550;28;19928;-67
2023/03/10 14:56:24;;;;;;;;;;;2.50;99.90;;;;;;8360062;28;19935;-67
2023/03/10 15:00:26;;;;;;;;;;;2.40;99.90;;;;;;8355439;28;20019;-67
2023/03/10 15:04:27;;;;;;;;;;;2.30;99.90;;;;;;8339682;28;20031;-67
2023/03/10 15:08:29;;;;;;;;;;;2.20;99.90;;;;;;8372454;28;19925;-67
2023/03/10 15:12:31;;;;;;;;;;;2.10;99.90;;;;;;8371276;28;19929;-67
2023/03/10 15:16:33;;;;;;;;;;;2.00;99.90;;;;;;8353065;28;19929;-67
2023/03/10 15:20:34;;;;;;;;;;;1.90;99.90;;;;;;8354329;28;19932;-67
2023/03/10 15:24:36;;;;;;;;;;;1.80;99.90;;;;;;8355871;28;19924;-68
2023/03/10 15:28:38;;;;;;;;;;;1.80;99.90;;;;;;8358150;28;19925;-68
2023/03/10 15:32:40;;;;;;;;;;;1.70;99.90;;;;;;8368054;28;20010;-67
2023/03/10 15:36:42;;;;;;;;;;;1.70;99.90;;;;;;8365867;28;20051;-68
2023/03/10 15:40:43;;;;;;;;;;;1.60;99.90;;;;;;8368002;28;19929;-67
2023/03/10 15:44:47;;;;;;;;;;;1.60;99.90;;;;;;8359301;28;19984;-67
2023/03/10 15:48:48;;;;;;;;;;;1.60;99.90;;;;;;8338148;28;19931;-68
2023/03/10 15:52:57;;;;;;;;;;;1.60;99.90;;;;;;8358610;28;19939;-67
2023/03/10 15:56:58;;;;;;;;;;;1.60;99.90;;;;;;8356378;28;19929;-68
2023/03/10 16:01:10;;;;;;;;;;;1.50;99.90;;;;;;8359534;28;19991;-68
2023/03/10 16:05:12;;;;;;;;;;;1.50;99.90;;;;;;8374452;28;20433;-67
2023/03/10 16:09:14;;;;;;;;;;;1.60;99.90;;;;;;8353174;28;19982;-67
2023/03/10 16:13:16;;;;;;;;;;;1.60;99.90;;;;;;8354688;28;19931;-68
2023/03/10 16:17:19;;;;;;;;;;;1.60;99.90;;;;;;8348473;28;19936;-67
2023/03/10 16:21:21;;;;;;;;;;;1.60;99.90;;;;;;8352159;28;19929;-68
2023/03/10 16:25:23;;;;;;;;;;;1.60;99.90;;;;;;8354317;28;20432;-67
2023/03/10 16:29:24;;;;;;;;;;;1.70;99.90;;;;;;8356122;28;20012;-67
2023/03/10 16:33:26;;;;;;;;;;;1.60;99.90;;;;;;8364156;28;19936;-67
2023/03/10 16:37:28;;;;;;;;;;;1.60;99.90;;;;;;8362518;28;19924;-67
2023/03/10 16:41:29;;;;;;;;;;;1.60;99.90;;;;;;8345912;28;19928;-67
2023/03/10 16:45:31;;;;;;;;;;;1.60;99.90;;;;;;8355706;28;19979;-68
2023/03/10 16:49:33;;;;;;;;;;;1.60;99.90;;;;;;8356302;28;20407;-70
2023/03/10 16:53:34;;;;;;;;;;;1.60;99.90;;;;;;8361696;28;19932;-67
2023/03/10 16:57:36;;;;;;;;;;;1.70;99.90;;;;;;8375354;28;19971;-67
2023/03/10 17:01:38;;;;;;;;;;;1.70;99.90;;;;;;8355162;28;19928;-68
2023/03/10 17:05:39;;;;;;;;;;;1.70;99.90;;;;;;8356831;28;20019;-68
2023/03/10 17:09:41;;;;;;;;;;;1.70;99.90;;;;;;8362904;28;19929;-67
2023/03/10 17:13:45;;;;;;;;;;;1.70;99.90;;;;;;8357086;28;19932;-67
2023/03/10 17:17:47;;;;;;;;;;;1.70;99.90;;;;;;8343453;28;19970;-67
2023/03/10 17:21:50;;;;;;;;;;;1.70;99.90;;;;;;8361204;28;19964;-67
2023/03/10 17:25:52;;;;;;;;;;;1.60;99.90;;;;;;8371477;28;20024;-67
2023/03/10 17:29:54;;;;;;;;;;;1.60;99.90;;;;;;8360564;28;19928;-67
2023/03/10 17:33:57;;;;;;;;;;;1.60;99.90;;;;;;8351305;28;20830;-67
2023/03/10 17:37:59;;;;;;;;;;;1.60;99.90;;;;;;8356326;28;19952;-67
2023/03/10 17:42:02;;;;;;;;;;;1.60;99.90;;;;;;8359941;28;19979;-67
2023/03/10 17:46:05;;;;;;;;;;;1.60;99.90;;;;;;8362208;28;19931;-69
2023/03/10 17:50:07;;;;;;;;;;;1.60;99.90;;;;;;8344294;28;19932;-69
2023/03/10 17:54:14;;;;;;;;;;;1.60;99.90;;;;;;8363754;28;19924;-69
2023/03/10 17:58:15;;;;;;;;;;;1.60;99.90;;;;;;8347247;28;19971;-69
2023/03/10 18:02:17;;;;;;;;;;;1.60;99.90;;;;;;8373782;28;19931;-69
2023/03/10 18:06:21;;;;;;;;;;;1.60;99.90;;;;;;8368120;28;19925;-69
2023/03/10 18:10:22;;;;;;;;;;;1.70;99.90;;;;;;8352105;28;20364;-70
2023/03/10 18:14:24;;;;;;;;;;;1.70;99.90;;;;;;8364973;28;19939;-70
2023/03/10 18:18:26;;;;;;;;;;;1.70;99.90;;;;;;8351679;28;20011;-69
2023/03/10 18:22:27;;;;;;;;;;;1.70;99.90;;;;;;8364749;28;19929;-69
2023/03/10 18:26:29;;;;;;;;;;;1.80;99.90;;;;;;8362910;28;20857;-70
2023/03/10 18:30:31;;;;;;;;;;;1.80;99.90;;;;;;8365969;28;19931;-70
2023/03/10 18:34:32;;;;;;;;;;;1.70;99.90;;;;;;8366271;28;19931;-69
2023/03/10 18:38:34;;;;;;;;;;;1.70;99.90;;;;;;8352381;28;20015;-70
2023/03/10 18:42:36;;;;;;;;;;;1.70;99.90;;;;;;8366723;28;19924;-70
2023/03/10 18:46:37;;;;;;;;;;;1.60;99.90;;;;;;8364631;28;19928;-69
2023/03/10 18:50:39;;;;;;;;;;;1.60;99.90;;;;;;8345286;28;19932;-70
2023/03/10 18:54:45;;;;;;;;;;;1.50;99.90;;;;;;8373685;28;20015;-69
2023/03/10 18:58:47;;;;;;;;;;;1.50;99.90;;;;;;8367065;28;19931;-70
2023/03/10 19:02:49;;;;;;;;;;;1.60;99.90;;;;;;8364414;28;20051;-70
2023/03/10 19:06:51;;;;;;;;;;;1.60;99.90;;;;;;8362432;28;19940;-69
2023/03/10 19:10:57;;;;;;;;;;;1.60;99.90;;;;;;8368744;28;19971;-70
2023/03/10 19:15:00;;;;;;;;;;;1.50;99.90;;;;;;8360647;28;20364;-69
2023/03/10 19:19:02;;;;;;;;;;;1.50;99.90;;;;;;8354544;28;19935;-69
2023/03/10 19:23:03;;;;;;;;;;;1.50;99.90;;;;;;8364877;28;20019;-69
2023/03/10 19:27:05;;;;;;;;;;;1.50;99.90;;;;;;8362679;28;20037;-70
2023/03/10 19:31:08;;;;;;;;;;;1.50;99.90;;;;;;8361394;28;19929;-70
2023/03/10 19:35:10;;;;;;;;;;;1.50;99.90;;;;;;8363651;28;19925;-69
2023/03/10 19:39:13;;;;;;;;;;;1.40;99.90;;;;;;8362191;28;19929;-70
2023/03/10 19:43:14;;;;;;;;;;;1.50;99.90;;;;;;8356448;28;20419;-70
2023/03/10 19:47:18;;;;;;;;;;;1.50;99.90;;;;;;8340819;28;20035;-70
2023/03/10 19:51:21;;;;;;;;;;;1.50;99.90;;;;;;8363390;28;19947;-70
2023/03/10 19:55:23;;;;;;;;;;;1.50;99.90;;;;;;8346310;28;20327;-69
2023/03/10 19:59:25;;;;;;;;;;;1.50;99.90;;;;;;8350110;28;19933;-70
2023/03/10 20:03:28;;;;;;;;;;;1.60;99.90;;;;;;8364753;28;19974;-69
2023/03/10 20:07:29;;;;;;;;;;;1.60;99.90;;;;;;8367088;28;20373;-69
2023/03/10 20:11:31;;;;;;;;;;;1.60;99.90;;;;;;8368238;28;19966;-70
2023/03/10 20:15:33;;;;;;;;;;;1.60;99.90;;;;;;8376896;28;19932;-70
2023/03/10 20:19:34;;;;;;;;;;;1.60;99.90;;;;;;8341532;28;19967;-70
2023/03/10 20:23:37;;;;;;;;;;;1.60;99.90;;;;;;8360070;28;19925;-69
2023/03/10 20:27:38;;;;;;;;;;;1.60;99.90;;;;;;8375785;28;19932;-69
2023/03/10 20:31:40;;;;;;;;;;;1.70;99.90;;;;;;8363285;28;20347;-70
2023/03/10 20:35:42;;;;;;;;;;;1.70;99.90;;;;;;8361102;28;19939;-70
2023/03/10 20:39:43;;;;;;;;;;;1.70;99.90;;;;;;8369812;28;19967;-69
2023/03/10 20:43:45;;;;;;;;;;;1.70;99.90;;;;;;8370031;28;21947;-70
2023/03/10 20:47:47;;;;;;;;;;;1.70;99.90;;;;;;8362874;28;20403;-70
2023/03/10 20:51:48;;;;;;;;;;;1.80;99.90;;;;;;8363583;28;19925;-70
2023/03/10 20:55:50;;;;;;;;;;;1.80;99.90;;;;;;8365233;28;20642;-69
2023/03/10 20:59:52;;;;;;;;;;;1.80;99.90;;;;;;8367482;28;20392;-70
2023/03/10 21:03:53;;;;;;;;;;;1.80;99.90;;;;;;8359342;28;19973;-70
2023/03/10 21:22:58;;;;;;;;;;;1.80;99.90;;;;;;8332432;28;19928;-70
2023/03/10 21:27:00;;;;;;;;;;;1.80;99.90;;;;;;8333088;28;20404;-69
2023/03/10 21:31:01;;;;;;;;;;;1.80;99.90;;;;;;8338417;28;19960;-69
2023/03/10 21:35:04;;;;;;;;;;;1.80;99.90;;;;;;8350594;28;19975;-70
2023/03/10 21:39:07;;;;;;;;;;;1.80;99.90;;;;;;8333445;28;20381;-69
2023/03/10 21:43:10;;;;;;;;;;;1.80;99.90;;;;;;8330871;28;19933;-69
2023/03/10 21:47:11;;;;;;;;;;;1.80;99.90;;;;;;8331563;28;20234;-69
2023/03/10 21:51:14;;;;;;;;;;;1.80;99.90;;;;;;8334010;28;19929;-70
2023/03/10 21:55:17;;;;;;;;;;;1.80;99.90;;;;;;8336340;28;19975;-70
2023/03/10 21:59:19;;;;;;;;;;;1.90;99.90;;;;;;8337357;28;19971;-70
2023/03/10 22:03:21;;;;;;;;;;;1.90;99.90;;;;;;8344934;28;19924;-69
2023/03/10 22:07:22;;;;;;;;;;;1.90;99.90;;;;;;8349168;28;19932;-70
2023/03/10 22:11:24;;;;;;;;;;;1.90;99.90;;;;;;8364120;28;19939;-70
2023/03/10 22:15:45;;;;;;;;;;;1.90;99.90;;;;;;8357919;28;19932;-70
2023/03/10 22:19:48;;;;;;;;;;;1.90;99.90;;;;;;8362632;28;19926;-70
2023/03/10 22:23:51;;;;;;;;;;;1.90;99.90;;;;;;8382171;28;20593;-69
2023/03/10 22:27:54;;;;;;;;;;;1.90;99.90;;;;;;8370850;28;19933;-70
2023/03/10 22:31:56;;;;;;;;;;;1.90;99.90;;;;;;8393730;28;20399;-69
2023/03/10 22:36:05;;;;;;;;;;;1.80;99.90;;;;;;8386740;28;19956;-70
2023/03/10 22:40:25;;;;;;;;;;;1.80;99.90;;;;;;8384968;28;19925;-69
2023/03/10 22:44:27;;;;;;;;;;;1.80;99.90;;;;;;8382125;28;19924;-69
2023/03/10 22:48:28;;;;;;;;;;;1.70;99.90;;;;;;8395604;28;20337;-69
2023/03/10 22:52:30;;;;;;;;;;;1.60;99.90;;;;;;8391689;28;19925;-70
2023/03/10 22:56:32;;;;;;;;;;;1.60;99.90;;;;;;8389186;28;19971;-69
2023/03/10 23:00:33;;;;;;;;;;;1.60;99.90;;;;;;8386901;28;19959;-69
2023/03/10 23:04:35;;;;;;;;;;;1.50;99.90;;;;;;8396416;28;19929;-70
2023/03/10 23:08:37;;;;;;;;;;;1.50;99.90;;;;;;8381458;28;19984;-69
2023/03/10 23:12:39;;;;;;;;;;;1.40;99.90;;;;;;8389010;28;20442;-69
2023/03/10 23:16:41;;;;;;;;;;;1.40;99.90;;;;;;8393560;28;20191;-69
2023/03/10 23:20:44;;;;;;;;;;;1.40;99.90;;;;;;8399493;28;19970;-70
2023/03/10 23:24:46;;;;;;;;;;;1.50;99.90;;;;;;8386162;28;19931;-70
2023/03/10 23:28:47;;;;;;;;;;;1.50;99.90;;;;;;8372096;28;20286;-70
2023/03/10 23:32:49;;;;;;;;;;;1.50;99.90;;;;;;8392992;28;19935;-70
2023/03/10 23:36:51;;;;;;;;;;;1.50;99.90;;;;;;8380642;28;19925;-70
2023/03/10 23:40:54;;;;;;;;;;;1.50;99.90;;;;;;8379639;28;19924;-70
2023/03/10 23:44:55;;;;;;;;;;;1.50;99.90;;;;;;8386586;28;19931;-70
2023/03/10 23:48:57;;;;;;;;;;;1.50;99.90;;;;;;8379081;28;20398;-70
2023/03/10 23:52:59;;;;;;;;;;;1.50;99.90;;;;;;8385925;28;20390;-70
2023/03/10 23:57:00;;;;;;;;;;;1.40;99.90;;;;;;8359654;28;19938;-70
